createdAt,value
2023-03-03T00:01:47.047Z,0.37
2023-03-03T00:04:14.777Z,0.33
2023-03-03T00:06:42.398Z,0.29
2023-03-03T00:09:09.956Z,0.26
2023-03-03T00:11:37.561Z,0.25
2023-03-03T00:14:20.226Z,0.20
2023-03-03T00:16:49.160Z,0.17
2023-03-03T00:19:20.242Z,0.12
2023-03-03T00:21:50.065Z,0.06
2023-03-03T00:24:23.680Z,0.01
2023-03-03T00:26:52.875Z,-0.05
2023-03-03T00:29:30.691Z,-0.09
2023-03-03T00:32:11.125Z,-0.16
2023-03-03T00:34:39.083Z,-0.13
2023-03-03T00:37:24.487Z,-0.13
2023-03-03T00:39:52.079Z,-0.11
2023-03-03T00:42:20.381Z,-0.15
2023-03-03T00:44:49.970Z,-0.17
2023-03-03T00:47:31.036Z,-0.11
2023-03-03T00:50:42.695Z,-0.11
2023-03-03T00:53:14.626Z,-0.10
2023-03-03T00:55:42.262Z,-0.05
2023-03-03T00:58:10.030Z,0.05
2023-03-03T01:00:40.136Z,0.14
2023-03-03T01:03:10.071Z,0.19
2023-03-03T01:05:37.994Z,0.25
2023-03-03T01:08:06.376Z,0.27
2023-03-03T01:10:36.931Z,0.35
2023-03-03T01:13:05.607Z,0.41
2023-03-03T01:15:33.335Z,0.41
2023-03-03T01:18:02.432Z,0.42
2023-03-03T01:20:30.077Z,0.40
2023-03-03T01:22:57.767Z,0.42
2023-03-03T01:25:25.618Z,0.46
2023-03-03T01:27:53.331Z,0.47
2023-03-03T01:30:21.030Z,0.54
2023-03-03T01:32:48.697Z,0.63
2023-03-03T01:35:17.909Z,0.79
2023-03-03T01:37:45.567Z,0.86
2023-03-03T01:40:16.509Z,0.91
2023-03-03T01:42:44.266Z,0.91
2023-03-03T01:45:16.889Z,0.90
2023-03-03T01:47:49.716Z,0.80
2023-03-03T01:50:27.636Z,0.70
2023-03-03T01:52:56.472Z,0.59
2023-03-03T01:55:29.445Z,0.48
2023-03-03T01:58:01.723Z,0.40
2023-03-03T02:00:31.225Z,0.32
2023-03-03T02:02:59.158Z,0.25
2023-03-03T02:05:29.090Z,0.23
2023-03-03T02:07:56.813Z,0.22
2023-03-03T02:10:24.906Z,0.20
2023-03-03T02:12:54.224Z,0.21
2023-03-03T02:15:23.966Z,0.18
2023-03-03T02:17:54.577Z,0.20
2023-03-03T02:20:37.040Z,0.21
2023-03-03T02:23:12.338Z,0.22
2023-03-03T02:25:50.549Z,0.29
2023-03-03T02:28:19.623Z,0.39
2023-03-03T02:30:47.842Z,0.47
2023-03-03T02:33:15.684Z,0.50
2023-03-03T02:35:43.798Z,0.51
2023-03-03T02:38:20.419Z,0.48
2023-03-03T02:41:00.236Z,0.46
2023-03-03T02:43:37.453Z,0.41
2023-03-03T02:46:05.283Z,0.38
2023-03-03T02:48:32.900Z,0.35
2023-03-03T02:51:00.496Z,0.27
2023-03-03T02:53:28.496Z,0.18
2023-03-03T02:55:56.127Z,0.10
2023-03-03T02:58:23.697Z,0.05
2023-03-03T03:00:52.888Z,0.02
2023-03-03T03:03:20.757Z,-0.01
2023-03-03T03:05:48.347Z,-0.02
2023-03-03T03:08:16.152Z,-0.02
2023-03-03T03:10:43.885Z,-0.10
2023-03-03T03:13:11.938Z,-0.17
2023-03-03T03:15:40.592Z,-0.27
2023-03-03T03:18:09.612Z,-0.35
2023-03-03T03:20:37.808Z,-0.42
2023-03-03T03:23:05.549Z,-0.46
2023-03-03T03:25:33.209Z,-0.47
2023-03-03T03:28:00.887Z,-0.43
2023-03-03T03:30:28.734Z,-0.35
2023-03-03T03:32:56.411Z,-0.30
2023-03-03T03:35:25.429Z,-0.20
2023-03-03T03:37:53.126Z,-0.11
2023-03-03T03:40:20.762Z,0.05
2023-03-03T03:42:48.369Z,0.15
2023-03-03T03:45:15.996Z,0.24
2023-03-03T03:47:43.697Z,0.35
2023-03-03T03:50:11.977Z,0.42
2023-03-03T03:52:41.245Z,0.51
2023-03-03T03:55:09.780Z,0.61
2023-03-03T03:57:37.593Z,0.68
2023-03-03T04:00:05.872Z,0.83
2023-03-03T04:02:33.593Z,0.90
2023-03-03T04:05:01.312Z,0.93
2023-03-03T04:07:29.152Z,0.96
2023-03-03T04:09:58.101Z,0.95
2023-03-03T04:12:25.813Z,0.97
2023-03-03T04:14:53.399Z,0.95
2023-03-03T04:17:24.411Z,0.92
2023-03-03T04:19:53.892Z,0.90
2023-03-03T04:22:22.270Z,0.90
2023-03-03T04:24:50.043Z,0.88
2023-03-03T04:27:18.978Z,0.93
2023-03-03T04:29:46.543Z,0.97
2023-03-03T04:32:14.277Z,1.02
2023-03-03T04:34:42.011Z,1.03
2023-03-03T04:37:09.625Z,1.00
2023-03-03T04:39:37.955Z,0.92
2023-03-03T04:42:05.873Z,0.84
2023-03-03T04:44:34.847Z,0.80
2023-03-03T04:47:02.666Z,0.76
2023-03-03T04:49:30.294Z,0.73
2023-03-03T04:51:58.197Z,0.66
2023-03-03T04:54:25.837Z,0.57
2023-03-03T04:56:53.509Z,0.51
2023-03-03T04:59:21.126Z,0.46
2023-03-03T05:01:51.068Z,0.40
2023-03-03T05:04:18.814Z,0.34
2023-03-03T05:06:46.490Z,0.28
2023-03-03T05:09:14.154Z,0.22
2023-03-03T05:11:41.833Z,0.15
2023-03-03T05:14:09.492Z,0.07
2023-03-03T05:16:37.791Z,-0.02
2023-03-03T05:19:06.886Z,-0.09
2023-03-03T05:21:35.677Z,-0.17
2023-03-03T05:24:04.673Z,-0.24
2023-03-03T05:26:32.362Z,-0.33
2023-03-03T05:28:59.950Z,-0.38
2023-03-03T05:31:27.816Z,-0.41
2023-03-03T05:33:55.608Z,-0.44
2023-03-03T05:36:24.694Z,-0.48
2023-03-03T05:38:52.742Z,-0.50
2023-03-03T05:41:20.529Z,-0.53
2023-03-03T05:43:48.213Z,-0.54
2023-03-03T05:46:16.067Z,-0.55
2023-03-03T05:48:43.880Z,-0.53
2023-03-03T05:51:11.571Z,-0.49
2023-03-03T05:53:40.662Z,-0.43
2023-03-03T05:56:08.702Z,-0.40
2023-03-03T05:58:37.201Z,-0.37
2023-03-03T06:01:05.175Z,-0.35
2023-03-03T06:03:33.356Z,-0.33
2023-03-03T06:06:00.978Z,-0.31
2023-03-03T06:08:29.570Z,-0.29
2023-03-03T06:10:58.684Z,-0.27
2023-03-03T06:13:26.322Z,-0.27
2023-03-03T06:15:53.928Z,-0.27
2023-03-03T06:18:21.624Z,-0.24
2023-03-03T06:20:52.966Z,-0.23
2023-03-03T06:23:20.714Z,-0.20
2023-03-03T06:25:48.467Z,-0.15
2023-03-03T06:28:17.447Z,-0.08
2023-03-03T06:30:45.025Z,-0.01
2023-03-03T06:33:12.829Z,0.04
2023-03-03T06:35:40.497Z,0.11
2023-03-03T06:38:08.127Z,0.16
2023-03-03T06:40:35.798Z,0.21
2023-03-03T06:43:04.247Z,0.27
2023-03-03T06:45:33.257Z,0.31
2023-03-03T06:48:00.885Z,0.34
2023-03-03T06:50:28.921Z,0.39
2023-03-03T06:53:03.986Z,0.45
2023-03-03T06:55:31.966Z,0.50
2023-03-03T06:58:00.537Z,0.53
2023-03-03T07:00:31.140Z,0.59
2023-03-03T07:03:03.514Z,0.65
2023-03-03T07:05:31.217Z,0.71
2023-03-03T07:07:59.199Z,0.67
2023-03-03T07:10:28.662Z,0.70
2023-03-03T07:13:03.600Z,0.76
2023-03-03T07:15:35.156Z,0.87
2023-03-03T07:18:09.617Z,0.96
2023-03-03T07:20:41.180Z,1.03
2023-03-03T07:23:20.760Z,1.10
2023-03-03T07:25:48.565Z,1.19
2023-03-03T07:28:23.623Z,1.32
2023-03-03T07:30:52.109Z,1.40
2023-03-03T07:33:27.554Z,1.47
2023-03-03T07:35:57.399Z,1.59
2023-03-03T07:38:31.743Z,1.64
2023-03-03T07:41:01.972Z,1.82
2023-03-03T07:43:37.396Z,1.92
2023-03-03T07:46:22.854Z,2.03
2023-03-03T07:48:53.468Z,2.14
2023-03-03T07:51:25.263Z,2.29
2023-03-03T07:53:54.117Z,2.46
2023-03-03T07:56:30.523Z,2.63
2023-03-03T07:58:59.400Z,2.73
2023-03-03T08:01:39.682Z,2.93
2023-03-03T08:04:19.312Z,3.08
2023-03-03T08:06:50.388Z,3.21
2023-03-03T08:09:35.456Z,3.30
2023-03-03T08:12:19.497Z,3.37
2023-03-03T08:14:48.240Z,3.35
2023-03-03T08:17:22.045Z,3.42
2023-03-03T08:19:52.175Z,3.50
2023-03-03T08:22:25.874Z,3.57
2023-03-03T08:24:53.578Z,3.67
2023-03-03T08:27:21.223Z,3.67
2023-03-03T08:29:50.050Z,3.75
2023-03-03T08:32:17.771Z,3.72
2023-03-03T08:34:45.422Z,3.75
2023-03-03T08:37:14.432Z,3.77
2023-03-03T08:39:42.966Z,3.78
2023-03-03T08:42:10.639Z,3.83
2023-03-03T08:44:38.304Z,3.89
2023-03-03T08:47:05.961Z,4.07
2023-03-03T08:49:33.576Z,4.19
2023-03-03T08:52:01.578Z,4.29
2023-03-03T08:54:30.832Z,4.44
2023-03-03T08:56:58.465Z,4.53
2023-03-03T08:59:26.126Z,4.66
2023-03-03T09:01:53.782Z,4.68
2023-03-03T09:04:21.488Z,4.82
2023-03-03T09:06:49.546Z,4.97
2023-03-03T09:09:17.174Z,5.09
2023-03-03T09:11:47.180Z,5.24
2023-03-03T09:14:16.635Z,5.31
2023-03-03T09:16:49.213Z,5.33
2023-03-03T09:19:26.084Z,5.39
2023-03-03T09:21:55.656Z,5.43
2023-03-03T09:24:27.609Z,5.45
2023-03-03T09:26:58.793Z,5.51
2023-03-03T09:29:29.032Z,5.55
2023-03-03T09:31:59.015Z,5.61
2023-03-03T09:34:36.497Z,5.71
2023-03-03T09:37:19.590Z,5.91
2023-03-03T09:39:50.734Z,5.97
2023-03-03T09:42:38.733Z,6.01
2023-03-03T09:45:49.969Z,6.17
2023-03-03T09:48:41.369Z,6.28
2023-03-03T09:51:20.760Z,6.38
2023-03-03T09:54:01.575Z,6.45
2023-03-03T09:56:35.279Z,6.56
2023-03-03T09:59:19.056Z,6.64
2023-03-03T10:01:58.880Z,6.72
2023-03-03T10:04:44.612Z,6.83
2023-03-03T10:07:39.806Z,6.95
2023-03-03T10:10:30.839Z,7.06
2023-03-03T10:13:10.912Z,7.12
2023-03-03T10:15:49.077Z,7.19
2023-03-03T10:18:32.233Z,7.12
2023-03-03T10:21:09.151Z,7.19
2023-03-03T10:23:58.458Z,7.34
2023-03-03T10:26:46.423Z,7.44
2023-03-03T10:29:34.090Z,7.59
2023-03-03T10:32:30.768Z,7.61
2023-03-03T10:35:19.798Z,7.58
2023-03-03T10:38:00.342Z,7.59
2023-03-03T10:40:35.958Z,7.51
2023-03-03T10:43:32.253Z,7.38
2023-03-03T10:46:28.208Z,7.33
2023-03-03T10:49:14.723Z,7.38
2023-03-03T10:51:53.588Z,7.46
2023-03-03T10:54:31.396Z,7.48
2023-03-03T10:57:05.126Z,7.48
2023-03-03T10:59:49.272Z,7.54
2023-03-03T11:02:22.870Z,7.68
2023-03-03T11:05:04.364Z,7.70
2023-03-03T11:07:37.960Z,7.78
2023-03-03T11:10:21.039Z,7.92
2023-03-03T11:12:59.727Z,8.07
2023-03-03T11:15:41.102Z,8.05
2023-03-03T11:18:26.278Z,8.19
2023-03-03T11:21:01.816Z,8.31
2023-03-03T11:23:55.238Z,8.49
2023-03-03T11:26:35.617Z,8.75
2023-03-03T11:29:13.412Z,8.74
2023-03-03T11:31:49.241Z,8.76
2023-03-03T11:34:30.349Z,8.30
2023-03-03T11:37:05.076Z,8.23
2023-03-03T11:39:34.155Z,8.26
2023-03-03T11:42:13.054Z,8.26
2023-03-03T11:44:45.828Z,8.24
2023-03-03T11:47:21.038Z,8.41
2023-03-03T11:49:52.145Z,8.49
2023-03-03T11:52:33.183Z,8.46
2023-03-03T11:55:05.178Z,8.74
2023-03-03T11:57:38.788Z,8.75
2023-03-03T12:00:25.117Z,8.70
2023-03-03T12:03:31.819Z,8.29
2023-03-03T12:06:23.499Z,8.15
2023-03-03T12:09:23.643Z,8.22
2023-03-03T12:11:56.077Z,8.38
2023-03-03T12:14:36.140Z,8.70
2023-03-03T12:17:07.848Z,8.89
2023-03-03T12:19:48.952Z,9.13
2023-03-03T12:22:26.492Z,9.22
2023-03-03T12:25:11.742Z,9.01
2023-03-03T12:27:46.276Z,8.82
2023-03-03T12:30:26.007Z,8.78
2023-03-03T12:33:08.606Z,8.84
2023-03-03T12:35:43.007Z,8.89
2023-03-03T12:38:23.064Z,8.97
2023-03-03T12:41:00.290Z,8.99
2023-03-03T12:43:44.031Z,8.66
2023-03-03T12:46:20.722Z,8.41
2023-03-03T12:48:49.215Z,8.46
2023-03-03T12:51:31.129Z,8.70
2023-03-03T12:54:15.716Z,8.56
2023-03-03T12:56:49.899Z,8.63
2023-03-03T12:59:26.126Z,8.71
2023-03-03T13:02:29.718Z,8.83
2023-03-03T13:05:03.329Z,8.86
2023-03-03T13:07:38.911Z,8.73
2023-03-03T13:10:17.701Z,8.71
2023-03-03T13:12:52.150Z,8.70
2023-03-03T13:15:36.284Z,8.80
2023-03-03T13:18:20.651Z,8.80
2023-03-03T13:20:55.314Z,8.88
2023-03-03T13:23:38.184Z,8.82
2023-03-03T13:26:11.740Z,8.80
2023-03-03T13:28:51.134Z,8.52
2023-03-03T13:31:21.772Z,8.60
2023-03-03T13:33:55.791Z,8.50
2023-03-03T13:36:31.456Z,8.70
2023-03-03T13:39:05.724Z,8.79
2023-03-03T13:41:42.543Z,8.72
2023-03-03T13:44:18.012Z,8.73
2023-03-03T13:46:57.130Z,8.65
2023-03-03T13:49:36.271Z,8.89
2023-03-03T13:52:08.390Z,8.95
2023-03-03T13:54:49.216Z,9.11
2023-03-03T13:57:28.469Z,9.13
2023-03-03T14:00:07.997Z,9.01
2023-03-03T14:02:58.599Z,8.79
2023-03-03T14:05:32.269Z,8.53
2023-03-03T14:08:04.981Z,8.53
2023-03-03T14:10:34.221Z,8.47
2023-03-03T14:13:06.445Z,8.35
2023-03-03T14:15:39.600Z,8.21
2023-03-03T14:18:22.388Z,8.14
2023-03-03T14:20:53.543Z,8.04
2023-03-03T14:23:26.158Z,8.10
2023-03-03T14:25:59.997Z,8.07
2023-03-03T14:28:29.749Z,7.93
2023-03-03T14:31:01.136Z,8.09
2023-03-03T14:33:32.400Z,8.20
2023-03-03T14:36:12.106Z,8.19
2023-03-03T14:38:44.407Z,8.23
2023-03-03T14:41:21.768Z,8.27
2023-03-03T14:44:01.080Z,8.20
2023-03-03T14:46:40.225Z,8.15
2023-03-03T14:49:16.470Z,8.17
2023-03-03T14:51:46.701Z,8.31
2023-03-03T14:54:25.840Z,8.32
2023-03-03T14:57:00.253Z,8.19
2023-03-03T14:59:29.515Z,8.05
2023-03-03T15:02:29.619Z,8.02
2023-03-03T15:05:15.732Z,8.02
2023-03-03T15:07:44.029Z,7.90
2023-03-03T15:10:13.428Z,7.79
2023-03-03T15:12:43.114Z,7.73
2023-03-03T15:15:19.559Z,7.65
2023-03-03T15:18:02.506Z,7.65
2023-03-03T15:20:43.105Z,7.58
2023-03-03T15:23:34.904Z,7.59
2023-03-03T15:26:09.627Z,7.59
2023-03-03T15:28:52.710Z,7.40
2023-03-03T15:31:32.463Z,7.32
2023-03-03T15:34:23.917Z,7.32
2023-03-03T15:36:58.115Z,7.25
2023-03-03T15:39:36.589Z,7.22
2023-03-03T15:42:06.991Z,7.07
2023-03-03T15:44:49.812Z,7.04
2023-03-03T15:47:36.485Z,7.04
2023-03-03T15:50:25.368Z,7.00
2023-03-03T15:53:03.086Z,6.97
2023-03-03T15:55:44.150Z,6.90
2023-03-03T15:58:34.274Z,6.86
2023-03-03T16:01:11.159Z,6.79
2023-03-03T16:03:46.418Z,6.69
2023-03-03T16:06:20.424Z,6.60
2023-03-03T16:08:59.606Z,6.60
2023-03-03T16:11:35.228Z,6.54
2023-03-03T16:14:19.566Z,6.40
2023-03-03T16:16:52.824Z,6.33
2023-03-03T16:19:30.664Z,6.29
2023-03-03T16:22:16.173Z,6.27
2023-03-03T16:24:58.680Z,6.13
2023-03-03T16:27:33.319Z,6.08
2023-03-03T16:30:12.720Z,5.96
2023-03-03T16:32:44.915Z,5.88
2023-03-03T16:35:24.293Z,5.80
2023-03-03T16:37:59.625Z,5.76
2023-03-03T16:40:31.369Z,5.67
2023-03-03T16:43:09.175Z,5.60
2023-03-03T16:45:39.521Z,5.51
2023-03-03T16:48:20.852Z,5.39
2023-03-03T16:50:58.926Z,5.33
2023-03-03T16:53:44.244Z,5.27
2023-03-03T16:56:17.034Z,5.16
2023-03-03T16:59:05.869Z,5.08
2023-03-03T17:01:41.976Z,4.99
2023-03-03T17:04:15.374Z,4.89
2023-03-03T17:06:50.176Z,4.85
2023-03-03T17:09:36.296Z,4.80
2023-03-03T17:12:18.379Z,4.74
2023-03-03T17:15:16.283Z,4.68
2023-03-03T17:17:48.698Z,4.63
2023-03-03T17:20:32.069Z,4.58
2023-03-03T17:23:16.265Z,4.54
2023-03-03T17:25:54.031Z,4.51
2023-03-03T17:28:35.774Z,4.50
2023-03-03T17:31:11.409Z,4.47
2023-03-03T17:34:04.622Z,4.42
2023-03-03T17:36:49.846Z,4.37
2023-03-03T17:39:39.766Z,4.31
2023-03-03T17:42:18.826Z,4.26
2023-03-03T17:44:57.229Z,4.23
2023-03-03T17:47:36.890Z,4.18
2023-03-03T17:50:18.218Z,4.10
2023-03-03T17:53:02.438Z,4.09
2023-03-03T17:55:54.790Z,4.06
2023-03-03T17:58:54.749Z,4.02
2023-03-03T18:01:31.262Z,3.98
2023-03-03T18:04:27.632Z,3.93
2023-03-03T18:07:22.450Z,3.88
2023-03-03T18:10:22.696Z,3.84
2023-03-03T18:13:00.050Z,3.81
2023-03-03T18:15:40.331Z,3.77
2023-03-03T18:18:26.085Z,3.74
2023-03-03T18:21:04.634Z,3.72
2023-03-03T18:23:39.780Z,3.67
2023-03-03T18:26:37.845Z,3.62
2023-03-03T18:29:22.617Z,3.59
2023-03-03T18:32:20.783Z,3.56
2023-03-03T18:34:48.507Z,3.52
2023-03-03T18:37:37.448Z,3.51
2023-03-03T18:40:35.785Z,3.48
2023-03-03T18:43:36.883Z,3.45
2023-03-03T18:46:04.711Z,3.42
2023-03-03T18:48:49.730Z,3.42
2023-03-03T18:52:13.710Z,3.39
2023-03-03T18:54:41.421Z,3.38
2023-03-03T18:57:18.458Z,3.39
2023-03-03T18:59:58.618Z,3.41
2023-03-03T19:02:36.058Z,3.39
2023-03-03T19:05:20.751Z,3.44
2023-03-03T19:07:53.122Z,3.45
2023-03-03T19:10:54.855Z,3.47
2023-03-03T19:13:44.569Z,3.47
2023-03-03T19:16:28.858Z,3.47
2023-03-03T19:19:02.952Z,3.44
2023-03-03T19:21:34.710Z,3.45
2023-03-03T19:24:04.649Z,3.44
2023-03-03T19:26:57.010Z,3.41
2023-03-03T19:30:01.583Z,3.44
2023-03-03T19:32:44.124Z,3.46
2023-03-03T19:35:26.926Z,3.48
2023-03-03T19:38:04.710Z,3.53
2023-03-03T19:40:38.224Z,3.57
2023-03-03T19:43:17.433Z,3.56
2023-03-03T19:45:58.157Z,3.60
2023-03-03T19:48:34.652Z,3.62
2023-03-03T19:51:14.360Z,3.62
2023-03-03T19:53:53.708Z,3.62
2023-03-03T19:56:29.690Z,3.65
2023-03-03T19:59:08.054Z,3.63
2023-03-03T20:01:48.894Z,3.64
2023-03-03T20:04:50.617Z,3.64
2023-03-03T20:07:29.858Z,3.65
2023-03-03T20:10:08.266Z,3.62
2023-03-03T20:13:00.129Z,3.66
2023-03-03T20:15:33.439Z,3.68
2023-03-03T20:18:23.458Z,3.69
2023-03-03T20:21:02.471Z,3.72
2023-03-03T20:23:39.215Z,3.73
2023-03-03T20:26:15.995Z,3.76
2023-03-03T20:29:03.723Z,3.79
2023-03-03T20:31:39.204Z,3.78
2023-03-03T20:34:14.896Z,3.81
2023-03-03T20:36:54.871Z,3.80
2023-03-03T20:39:39.312Z,3.84
2023-03-03T20:42:19.082Z,3.89
2023-03-03T20:45:01.766Z,3.95
2023-03-03T20:47:41.523Z,3.98
2023-03-03T20:50:18.891Z,4.07
2023-03-03T20:52:57.099Z,4.12
2023-03-03T20:55:32.472Z,4.18
2023-03-03T20:58:07.569Z,4.25
2023-03-03T21:00:43.546Z,4.33
2023-03-03T21:03:21.123Z,4.39
2023-03-03T21:05:58.630Z,4.44
2023-03-03T21:08:46.458Z,4.52
2023-03-03T21:11:14.984Z,4.55
2023-03-03T21:13:45.387Z,4.57
2023-03-03T21:16:28.991Z,4.64
2023-03-03T21:18:58.248Z,4.66
2023-03-03T21:21:26.606Z,4.73
2023-03-03T21:23:54.322Z,4.77
2023-03-03T21:26:51.274Z,4.83
2023-03-03T21:29:23.137Z,4.89
2023-03-03T21:31:52.145Z,4.91
2023-03-03T21:34:31.028Z,4.95
2023-03-03T21:37:00.043Z,4.95
2023-03-03T21:39:30.686Z,4.99
2023-03-03T21:42:01.797Z,5.07
2023-03-03T21:44:36.417Z,5.07
2023-03-03T21:47:04.795Z,5.12
2023-03-03T21:49:32.554Z,5.13
2023-03-03T21:52:00.755Z,5.15
2023-03-03T21:54:29.314Z,5.18
2023-03-03T21:56:56.918Z,5.20
2023-03-03T21:59:24.788Z,5.23
2023-03-03T22:01:53.786Z,5.24
2023-03-03T22:04:21.364Z,5.25
2023-03-03T22:06:48.967Z,5.31
2023-03-03T22:09:16.601Z,5.33
2023-03-03T22:11:44.324Z,5.34
2023-03-03T22:14:12.209Z,5.40
2023-03-03T22:16:40.191Z,5.41
2023-03-03T22:19:10.161Z,5.44
2023-03-03T22:21:38.835Z,5.48
2023-03-03T22:24:07.305Z,5.49
2023-03-03T22:26:35.152Z,5.48
2023-03-03T22:29:02.879Z,5.47
2023-03-03T22:31:30.522Z,5.48
2023-03-03T22:33:58.644Z,5.50
2023-03-03T22:36:27.803Z,5.52
2023-03-03T22:38:55.438Z,5.52
2023-03-03T22:41:23.023Z,5.52
2023-03-03T22:43:50.743Z,5.53
2023-03-03T22:46:18.456Z,5.54
2023-03-03T22:48:46.175Z,5.56
2023-03-03T22:51:13.764Z,5.57
2023-03-03T22:53:42.766Z,5.62
2023-03-03T22:56:10.462Z,5.61
2023-03-03T22:58:38.075Z,5.61
2023-03-03T23:01:06.083Z,5.61
2023-03-03T23:03:34.079Z,5.62
2023-03-03T23:06:01.754Z,5.61
2023-03-03T23:08:29.360Z,5.65
2023-03-03T23:10:58.492Z,5.64
2023-03-03T23:13:27.052Z,5.65
2023-03-03T23:15:58.405Z,5.66
2023-03-03T23:18:26.162Z,5.65
2023-03-03T23:20:53.740Z,5.59
2023-03-03T23:23:21.342Z,5.59
2023-03-03T23:25:49.386Z,5.57
2023-03-03T23:28:19.248Z,5.59
2023-03-03T23:30:46.880Z,5.59
2023-03-03T23:33:14.716Z,5.59
2023-03-03T23:35:42.577Z,5.53
2023-03-03T23:38:15.183Z,5.55
2023-03-03T23:40:43.127Z,5.54
2023-03-03T23:43:11.330Z,5.52
2023-03-03T23:45:40.830Z,5.48
2023-03-03T23:48:08.642Z,5.44
2023-03-03T23:50:37.168Z,5.42
2023-03-03T23:53:05.367Z,5.38
2023-03-03T23:55:33.003Z,5.38
2023-03-03T23:58:00.601Z,5.38
